x

Nanakwa Shoal (46181) Weather Station

11:00am - Fri 11th Jul 2014 All times are PDT. -7 hours from GMT.

  • Peak Period 2s
  • Wind
    2mph
  • Sea Temp 65°f
  • Air Temp 63°f
  • Sea Pressure 1017.1mb
  • Nanakwa Shoal
  • Nanakwa Shoal

More Historic Weather Station data

Upgrade to MSW Pro to gain access to the past 30 days of data for over 8000 Wavebouys and Weather Stations around the globe.

Join Pro

Comparision Forecast

View Surf forecast
   
Fri 07/11 11:00am  -  2s 2
mph
1017.1mb 65f 63f
10:00am  -  2s  -  2 mph 1017.3mb 64f 63f
9:00am 0.3ft 2s 2 4 mph 1017.5mb 63f 61f
8:00am 0.3ft 2s 9
mph
1017.6mb 62f 59f
7:00am  -  2s 9
mph
1017.5mb 62f 60f
6:00am  -  2s 9 11 mph 1017.2mb 62f 59f
5:00am  -  2s 2
mph
1017.3mb 61f 60f
4:00am  -  2s 2
mph
1017.1mb 62f 60f
3:00am  -  2s 2
mph
1016.8mb 62f 61f
2:00am  -  2s  -  2 mph 1016.4mb 62f 61f
1:00am 0.3ft 2s 2
mph
1015.9mb 62f 62f
12:00am 0.3ft 2s 2
mph
1015.6mb 62f 63f
Thu 07/10 11:00pm 0.3ft 2s 4 7 mph 1015.2mb 62f 65f
10:00pm 0.3ft 3s 7
mph
1015mb 63f 67f
9:00pm 0.3ft 2s 11 13 mph 1014.6mb 63f 68f
8:00pm 0.3ft 2s 13
mph
1014.4mb 64f 69f
7:00pm 0.3ft 2s 11 13 mph 1014.5mb 65f 69f
6:00pm  -  2s 11 13 mph 1014.8mb 65f 69f
5:00pm 0.3ft 2s 11 13 mph 1015.1mb 64f 67f
4:00pm 0.3ft 2s 9 11 mph 1015.4mb 65f 67f
3:00pm 0.3ft 2s 9
mph
1015.8mb 64f 67f
2:00pm 0.3ft 2s 9
mph
1016.4mb 64f 67f
1:00pm 0.3ft 2s 2 4 mph 1016.9mb 63f 68f
12:00pm 0.3ft 2s 7 9 mph 1017.6mb 62f 65f
11:00am 0.3ft 2s 9 11 mph 1018.3mb 62f 63f
10:00am 0.7ft 2s 13 18 mph 1018.9mb 62f 60f
9:00am 0.7ft 2s 13 16 mph 1019.6mb 61f 58f
8:00am 0.3ft 2s 18 20 mph 1019.9mb 61f 56f
7:00am 0.3ft 2s 13 18 mph 1020.2mb 61f 55f
6:00am  -  2s 11 13 mph 1020.5mb 61f 55f
5:00am  -  2s 9 11 mph 1020.5mb 60f 55f
4:00am  -  2s 9 11 mph 1020.4mb 59f 56f
3:00am  -  2s 9 11 mph 1020.3mb 59f 58f
2:00am 0.3ft 2s 2 4 mph 1020mb 60f 58f
1:00am 0.3ft 2s 2 4 mph 1019.8mb 60f 58f
12:00am 0.3ft 2s 4
mph
1019.6mb 60f 59f
Wed 07/09 11:00pm 0.3ft 2s 11 16 mph 1019.3mb 60f 61f
10:00pm 0.3ft 2s 7 9 mph 1019.2mb 60f 63f
9:00pm 0.3ft 2s 7 9 mph 1019.1mb 60f 64f
8:00pm 0.3ft 2s 9 16 mph 1019mb 60f 66f
7:00pm 0.3ft 2s 11 18 mph 1019.3mb 60f 66f
6:00pm 0.7ft 2s 16 20 mph 1019.7mb 60f 64f
5:00pm 1ft 2s 16 20 mph 1020mb 60f 65f
4:00pm 1ft 3s 20 25 mph 1020.1mb 60f 64f
3:00pm 1ft 2s 18 22 mph 1020.3mb 60f 64f
2:00pm 0.7ft 2s 18 20 mph 1020.3mb 61f 64f
1:00pm 0.3ft 2s 13 16 mph 1020.6mb 60f 63f
12:00pm 0.3ft 2s 13 18 mph 1020.8mb 60f 62f
11:00am 0.3ft 2s 13 18 mph 1020.9mb 60f 61f
10:00am 0.7ft 2s 18 20 mph 1021mb 59f 60f
9:00am 0.3ft 2s 16 18 mph 1021.2mb 59f 59f
8:00am 0.7ft 2s 13 18 mph 1021.4mb 59f 59f
7:00am 0.3ft 2s 11 13 mph 1021.5mb 58f 59f
6:00am 0.3ft 2s 11 13 mph 1021.4mb 58f 58f
5:00am 0.3ft 2s 11 16 mph 1021mb 58f 58f
4:00am 0.3ft 2s 16 20 mph 1020.6mb 59f 59f
3:00am 0.7ft 2s 18 20 mph 1020.2mb 59f 59f
2:00am 0.7ft 2s 18 22 mph 1020.1mb 60f 59f
1:00am 0.7ft 2s 18 22 mph 1019.9mb 58f 60f
12:00am 1ft 2s 18 22 mph 1019.6mb 58f 60f
Tue 07/08 11:00pm 0.7ft 2s 20 22 mph 1019.5mb 58f 60f
10:00pm 1ft 3s 20 22 mph 1019.1mb 58f 61f
9:00pm 1ft 3s 22 25 mph 1018.7mb 59f 61f
8:00pm 1ft 2s 20 22 mph 1018.4mb 59f 62f
7:00pm 0.7ft 2s 20 25 mph 1018.6mb 59f 63f
6:00pm 0.7ft 2s 13 18 mph 1019mb 59f 62f
5:00pm 1ft 2s 13 18 mph 1019.5mb 59f 64f
4:00pm 1ft 2s 16 18 mph 1019.7mb 60f 63f
3:00pm 1ft 2s 16 18 mph 1019.9mb 60f 62f
2:00pm 0.7ft 2s 16 20 mph 1020mb 60f 61f
1:00pm 0.7ft 2s 11 13 mph 1020.6mb 60f 60f
12:00pm 0.3ft 2s 13 16 mph 1021.1mb 60f 59f
11:00am 0.3ft 2s 11
mph
1021.3mb 59f 58f
10:00am 0.3ft 2s 11 13 mph 1021.4mb 59f 58f
9:00am 0.3ft 2s 9 11 mph 1021.7mb 59f 57f
8:00am  -  2s 11 13 mph 1021.6mb 58f 57f
7:00am  -  2s 13 16 mph 1021.7mb 57f 57f
6:00am 0.3ft 2s 13 16 mph 1021.7mb 57f 56f
5:00am 0.3ft 2s 13 16 mph 1021.9mb 57f 57f
4:00am 0.3ft 2s 11 13 mph 1022mb 57f 57f
3:00am 0.3ft 2s 13 18 mph 1022.1mb 58f 58f
2:00am 0.3ft 2s 11 16 mph 1022.1mb 59f 58f
1:00am 0.3ft 2s 16 20 mph 1021.9mb 59f 58f
12:00am 0.7ft 2s 18 22 mph 1021.6mb 59f 58f
Mon 07/07 11:00pm 1ft 2s 22 27 mph 1021.1mb 59f 59f
10:00pm 1ft 2s 18 22 mph 1021mb 58f 58f
9:00pm 1ft 2s 20 22 mph 1020.5mb 58f 59f
8:00pm 1ft 3s 18 22 mph 1020.5mb 59f 60f